createdAt,value
2023-06-15T00:01:08.198Z,68.38
2023-06-15T00:03:36.578Z,68.94
2023-06-15T00:06:04.668Z,69.30
2023-06-15T00:08:32.545Z,68.63
2023-06-15T00:11:00.495Z,68.11
2023-06-15T00:13:28.718Z,68.10
2023-06-15T00:15:56.680Z,68.21
2023-06-15T00:18:24.865Z,68.88
2023-06-15T00:20:52.836Z,69.93
2023-06-15T00:23:27.657Z,70.48
2023-06-15T00:25:56.699Z,69.88
2023-06-15T00:28:24.712Z,69.28
2023-06-15T00:30:52.582Z,69.50
2023-06-15T00:33:20.595Z,70.18
2023-06-15T00:35:51.191Z,70.10
2023-06-15T00:38:19.761Z,68.84
2023-06-15T00:40:49.167Z,70.39
2023-06-15T00:43:20.135Z,71.24
2023-06-15T00:45:48.199Z,71.45
2023-06-15T00:48:16.453Z,71.54
2023-06-15T00:50:44.843Z,72.15
2023-06-15T00:53:13.625Z,71.74
2023-06-15T00:55:43.182Z,72.15
2023-06-15T00:58:11.413Z,71.28
2023-06-15T01:00:39.590Z,71.30
2023-06-15T01:03:08.081Z,71.43
2023-06-15T01:05:36.594Z,72.36
2023-06-15T01:08:06.365Z,72.69
2023-06-15T01:10:37.130Z,71.90
2023-06-15T01:13:08.829Z,72.97
2023-06-15T01:15:36.956Z,72.14
2023-06-15T01:18:06.259Z,71.37
2023-06-15T01:20:41.092Z,71.72
2023-06-15T01:24:04.467Z,71.17
2023-06-15T01:26:34.662Z,71.53
2023-06-15T01:29:04.881Z,71.91
2023-06-15T01:31:34.049Z,71.43
2023-06-15T01:34:02.141Z,71.27
2023-06-15T01:36:30.159Z,71.65
2023-06-15T01:38:59.397Z,71.09
2023-06-15T01:41:28.143Z,70.89
2023-06-15T01:43:57.950Z,71.43
2023-06-15T01:46:27.611Z,70.76
2023-06-15T01:48:56.697Z,70.73
2023-06-15T01:51:27.503Z,70.31
2023-06-15T01:53:55.781Z,70.21
2023-06-15T01:56:24.808Z,69.96
2023-06-15T01:58:52.732Z,71.46
2023-06-15T02:01:21.143Z,70.83
2023-06-15T02:03:49.171Z,71.35
2023-06-15T02:06:17.075Z,70.48
2023-06-15T02:08:45.044Z,69.78
2023-06-15T02:11:13.086Z,70.25
2023-06-15T02:13:41.059Z,71.17
2023-06-15T02:16:09.323Z,70.80
2023-06-15T02:18:38.649Z,71.57
2023-06-15T02:21:06.698Z,71.51
2023-06-15T02:23:35.420Z,72.27
2023-06-15T02:26:03.475Z,72.72
2023-06-15T02:28:32.910Z,72.52
2023-06-15T02:31:00.899Z,72.32
2023-06-15T02:33:32.582Z,71.63
2023-06-15T02:36:00.889Z,72.10
2023-06-15T02:38:28.834Z,72.58
2023-06-15T02:40:56.780Z,72.36
2023-06-15T02:43:24.745Z,72.48
2023-06-15T02:45:52.732Z,74.09
2023-06-15T02:48:21.340Z,74.31
2023-06-15T02:50:49.503Z,74.95
2023-06-15T02:53:22.235Z,75.24
2023-06-15T02:55:55.279Z,74.91
2023-06-15T02:58:25.579Z,74.99
2023-06-15T03:00:54.794Z,74.87
2023-06-15T03:03:30.963Z,73.98
2023-06-15T03:06:02.077Z,75.48
2023-06-15T03:08:35.101Z,74.83
2023-06-15T03:11:15.643Z,74.68
2023-06-15T03:13:43.640Z,74.07
2023-06-15T03:16:17.157Z,73.87
2023-06-15T03:18:48.792Z,73.22
2023-06-15T03:21:16.800Z,73.80
2023-06-15T03:23:45.936Z,73.01
2023-06-15T03:26:15.063Z,72.64
2023-06-15T03:28:43.420Z,72.92
2023-06-15T03:31:18.456Z,73.90
2023-06-15T03:33:47.497Z,74.07
2023-06-15T03:36:17.633Z,74.89
2023-06-15T03:38:47.197Z,74.05
2023-06-15T03:41:15.458Z,73.78
2023-06-15T03:43:43.476Z,74.68
2023-06-15T03:46:11.518Z,74.21
2023-06-15T03:48:39.508Z,73.20
2023-06-15T03:51:07.948Z,74.21
2023-06-15T03:53:37.532Z,73.91
2023-06-15T03:56:05.618Z,73.17
2023-06-15T03:58:33.858Z,73.41
2023-06-15T04:01:02.634Z,72.69
2023-06-15T04:03:30.946Z,72.11
2023-06-15T04:05:59.091Z,71.77
2023-06-15T04:08:28.065Z,70.93
2023-06-15T04:10:58.127Z,70.69
2023-06-15T04:13:26.259Z,70.52
2023-06-15T04:15:54.996Z,70.70
2023-06-15T04:18:23.963Z,71.68
2023-06-15T04:20:52.895Z,71.50
2023-06-15T04:23:21.490Z,71.87
2023-06-15T04:25:50.779Z,72.23
2023-06-15T04:28:18.868Z,72.07
2023-06-15T04:30:56.244Z,72.43
2023-06-15T04:33:24.563Z,72.11
2023-06-15T04:35:53.641Z,73.35
2023-06-15T04:38:22.025Z,73.12
2023-06-15T04:40:53.641Z,71.96
2023-06-15T04:43:21.940Z,70.54
2023-06-15T04:45:50.369Z,72.09
2023-06-15T04:48:22.093Z,72.65
2023-06-15T04:50:50.331Z,71.11
2023-06-15T04:53:19.612Z,70.37
2023-06-15T04:55:50.102Z,70.33
2023-06-15T04:58:21.672Z,69.94
2023-06-15T05:00:50.778Z,71.37
2023-06-15T05:03:20.242Z,70.80
2023-06-15T05:05:48.351Z,71.41
2023-06-15T05:08:16.740Z,70.69
2023-06-15T05:10:46.930Z,71.24
2023-06-15T05:13:20.108Z,71.46
2023-06-15T05:15:48.194Z,72.11
2023-06-15T05:18:18.217Z,71.07
2023-06-15T05:20:46.488Z,71.58
2023-06-15T05:23:14.652Z,73.05
2023-06-15T05:25:44.485Z,72.63
2023-06-15T05:28:12.847Z,73.04
2023-06-15T05:30:41.917Z,72.13
2023-06-15T05:33:10.733Z,72.87
2023-06-15T05:35:39.198Z,73.23
2023-06-15T05:38:07.289Z,74.27
2023-06-15T05:40:39.025Z,72.93
2023-06-15T05:43:07.490Z,70.19
2023-06-15T05:45:40.399Z,70.01
2023-06-15T05:48:09.516Z,68.19
2023-06-15T05:50:38.317Z,69.03
2023-06-15T05:53:07.077Z,71.38
2023-06-15T05:55:35.203Z,69.79
2023-06-15T05:58:03.584Z,67.60
2023-06-15T06:00:33.044Z,68.16
2023-06-15T06:03:02.644Z,68.36
2023-06-15T06:05:45.010Z,68.83
2023-06-15T06:08:13.023Z,68.71
2023-06-15T06:10:41.563Z,67.28
2023-06-15T06:13:27.934Z,68.33
2023-06-15T06:15:56.323Z,69.01
2023-06-15T06:18:24.403Z,69.83
2023-06-15T06:20:52.558Z,68.17
2023-06-15T06:23:20.529Z,70.47
2023-06-15T06:25:48.486Z,71.45
2023-06-15T06:28:16.780Z,69.68
2023-06-15T06:30:45.132Z,69.93
2023-06-15T06:33:13.158Z,69.93
2023-06-15T06:35:41.161Z,69.24
2023-06-15T06:38:09.098Z,68.40
2023-06-15T06:40:37.053Z,68.92
2023-06-15T06:43:05.031Z,69.33
2023-06-15T06:45:33.018Z,68.08
2023-06-15T06:48:01.034Z,68.81
2023-06-15T06:50:29.022Z,68.47
2023-06-15T06:52:57.313Z,67.70
2023-06-15T06:55:25.259Z,68.17
2023-06-15T06:57:53.541Z,67.52
2023-06-15T07:00:21.730Z,67.23
2023-06-15T07:02:49.744Z,67.09
2023-06-15T07:05:17.993Z,66.72
2023-06-15T07:07:46.161Z,67.70
2023-06-15T07:14:21.420Z,67.06
2023-06-15T07:16:49.430Z,66.69
2023-06-15T07:19:17.386Z,68.30
2023-06-15T07:21:45.418Z,67.42
2023-06-15T07:24:13.432Z,68.16
2023-06-15T07:26:41.599Z,67.08
2023-06-15T07:29:09.538Z,67.27
2023-06-15T07:31:37.573Z,66.83
2023-06-15T07:34:05.520Z,66.90
2023-06-15T07:36:33.443Z,67.38
2023-06-15T07:39:01.598Z,67.30
2023-06-15T07:41:29.636Z,67.28
2023-06-15T07:43:57.596Z,67.69
2023-06-15T07:46:25.563Z,67.90
2023-06-15T07:48:53.473Z,68.10
2023-06-15T07:51:32.797Z,66.03
2023-06-15T07:54:06.296Z,66.43
2023-06-15T07:56:34.333Z,65.04
2023-06-15T07:59:02.314Z,65.49
2023-06-15T08:01:30.317Z,66.01
2023-06-15T08:03:58.192Z,63.90
2023-06-15T08:06:26.815Z,65.10
2023-06-15T08:08:54.980Z,65.08
2023-06-15T08:11:22.998Z,64.07
2023-06-15T08:13:50.940Z,63.53
2023-06-15T11:44:27.903Z,49.46
2023-06-15T11:46:59.036Z,48.09
2023-06-15T11:49:33.678Z,48.16
2023-06-15T11:52:01.964Z,49.39
2023-06-15T11:54:44.949Z,49.40
2023-06-15T11:57:17.915Z,50.67
2023-06-15T11:59:46.332Z,48.86
2023-06-15T12:02:16.701Z,49.22
2023-06-15T12:04:47.754Z,48.91
2023-06-15T12:07:32.001Z,50.54
2023-06-15T12:10:04.671Z,51.24
2023-06-15T12:12:34.728Z,50.05
2023-06-15T12:15:04.346Z,49.95
2023-06-15T12:17:34.909Z,49.51
2023-06-15T12:20:10.992Z,49.44
2023-06-15T12:22:45.951Z,49.09
2023-06-15T12:25:15.794Z,49.58
2023-06-15T12:27:46.902Z,48.79
2023-06-15T12:30:17.623Z,51.20
2023-06-15T12:32:48.124Z,48.17
2023-06-15T12:35:45.376Z,49.15
2023-06-15T12:38:13.346Z,46.69
2023-06-15T12:40:42.900Z,47.71
2023-06-15T12:43:10.782Z,46.75
2023-06-15T12:45:38.736Z,48.60
2023-06-15T12:48:07.765Z,49.65
2023-06-15T12:50:35.687Z,46.76
2023-06-15T12:53:04.142Z,46.70
2023-06-15T12:55:32.381Z,44.63
2023-06-15T12:58:00.527Z,47.13
2023-06-15T13:00:30.097Z,45.15
2023-06-15T13:03:00.586Z,44.63
2023-06-15T13:05:29.612Z,44.34
2023-06-15T13:07:57.911Z,41.45
2023-06-15T13:10:26.110Z,43.19
2023-06-15T13:12:54.271Z,43.98
2023-06-15T13:15:22.640Z,44.24
2023-06-15T13:17:51.078Z,44.43
2023-06-15T13:20:20.360Z,42.13
2023-06-15T13:22:51.833Z,40.86
2023-06-15T13:25:22.996Z,40.44
2023-06-15T13:27:51.168Z,39.98
2023-06-15T13:30:19.550Z,40.33
2023-06-15T13:32:48.215Z,44.28
2023-06-15T13:35:18.140Z,44.77
2023-06-15T13:37:47.369Z,42.18
2023-06-15T13:40:15.901Z,41.78
2023-06-15T13:42:44.219Z,41.02
2023-06-15T13:45:15.097Z,42.39
2023-06-15T13:47:43.732Z,42.62
2023-06-15T13:50:14.115Z,41.29
2023-06-15T13:52:44.091Z,43.21
2023-06-15T13:55:12.478Z,43.10
2023-06-15T13:57:40.437Z,42.04
2023-06-15T14:00:09.148Z,43.06
2023-06-15T14:02:44.487Z,43.62
2023-06-15T14:05:14.515Z,41.71
2023-06-15T14:07:43.069Z,42.42
2023-06-15T14:10:11.430Z,42.34
2023-06-15T14:12:39.982Z,43.30
2023-06-15T14:15:10.532Z,41.93
2023-06-15T14:17:39.581Z,42.41
2023-06-15T14:20:09.717Z,42.41
2023-06-15T14:22:37.788Z,43.55
2023-06-15T14:25:06.485Z,45.05
2023-06-15T14:27:34.374Z,44.98
2023-06-15T14:30:03.185Z,43.93
2023-06-15T14:32:31.342Z,44.82
2023-06-15T14:34:59.496Z,43.81
2023-06-15T14:37:27.747Z,44.67
2023-06-15T14:39:55.744Z,45.36
2023-06-15T14:42:25.769Z,43.81
2023-06-15T14:44:55.538Z,43.89
2023-06-15T14:47:23.568Z,43.51
2023-06-15T14:49:51.558Z,43.80
2023-06-15T14:52:19.695Z,44.96
2023-06-15T14:54:47.606Z,44.39
2023-06-15T14:57:15.821Z,44.49
2023-06-15T14:59:43.798Z,43.87
2023-06-15T15:02:11.715Z,44.89
2023-06-15T15:04:39.900Z,42.49
2023-06-15T15:07:07.894Z,43.06
2023-06-15T15:09:35.806Z,42.83
2023-06-15T15:12:04.211Z,44.18
2023-06-15T15:14:32.167Z,43.47
2023-06-15T15:17:00.264Z,42.21
2023-06-15T15:19:28.306Z,42.93
2023-06-15T15:21:56.245Z,42.73
2023-06-15T15:24:24.655Z,42.80
2023-06-15T15:26:52.557Z,42.70
2023-06-15T15:29:20.537Z,42.17
2023-06-15T15:31:48.542Z,42.60
2023-06-15T15:34:16.601Z,42.22
2023-06-15T15:36:45.983Z,43.46
2023-06-15T15:39:13.928Z,41.71
2023-06-15T15:41:43.166Z,41.46
2023-06-15T15:44:11.138Z,41.95
2023-06-15T15:46:39.221Z,42.73
2023-06-15T15:49:07.454Z,42.02
2023-06-15T15:51:36.643Z,42.50
2023-06-15T15:54:04.550Z,41.07
2023-06-15T15:56:32.458Z,41.83
2023-06-15T15:59:00.704Z,41.66
2023-06-15T16:01:28.772Z,43.87
